Flight Track Log - Related Links

Times and Time Zones

All times are in EDT time to prevent confusion due to time zone crossing. See the CJT574 flight status page for this flight to view local times or setup timezone preferences in your user account.

Time Position Orientation Groundspeed Altitude Reporting Facility
EDT Latitude Longitude Course Direction KTS MPH feet Rate Location/Type
Wed 02:31:46 AM 49.9167 -97.2333 102° East 160 184 1,200  Level Winnipeg Center
Wed 02:32:46 AM 49.9667 -97.2333 360° North 170 196 3,300 1,600 Climbing Winnipeg Center
Wed 02:33:46 AM 50.0000 -97.2000 33° Northeast 220 253 4,400 1,400 Climbing Winnipeg Center
Wed 02:34:46 AM 50.0000 -97.0667 90° East 280 322 6,100 2,350 Climbing Winnipeg Center
Wed 02:35:46 AM 49.9833 -96.9667 104° East 290 334 9,100 2,450 Climbing Winnipeg Center
Wed 02:36:46 AM 49.9667 -96.8333 101° East 310 357 11,000 1,800 Climbing Winnipeg Center
Wed 02:37:00 AM 49.7715 -96.1778 102° East  Level FlightAware Approximate
Wed 02:37:46 AM 49.9167 -96.6833 117° Southeast 370 426 12,700  Level Winnipeg Center
Wed 02:38:46 AM 49.8833 -96.5500 111° Southeast 380 437 15,000 2,350 Climbing Winnipeg Center
Wed 02:39:46 AM 49.8333 -96.3667 113° Southeast 390 449 17,400 2,150 Climbing Winnipeg Center
Wed 02:40:46 AM 49.7833 -96.2167 117° Southeast 400 460 19,300 1,900 Climbing Winnipeg Center
Wed 02:41:46 AM 49.7167 -96.0667 124° Southeast 410 472 21,200 1,750 Climbing Winnipeg Center
Wed 02:42:46 AM 49.6833 -95.9000 107° East 420 483 22,800 1,500 Climbing Winnipeg Center
Wed 02:43:46 AM 49.6333 -95.7333 115° Southeast 430 495 24,200 1,450 Climbing Winnipeg Center
Wed 02:44:46 AM 49.5833 -95.5500 113° Southeast 440 506 25,700 1,450 Climbing Winnipeg Center
Wed 02:45:46 AM 49.5333 -95.4000 117° Southeast 450 518 27,100 1,450 Climbing Winnipeg Center
Wed 02:46:46 AM 49.4833 -95.1833 109° East 470 541 28,600 1,500 Climbing Winnipeg Center
Wed 02:47:46 AM 49.4167 -95.0167 122° Southeast 470 541 30,100 1,400 Climbing Winnipeg Center
Wed 02:48:46 AM 49.3500 -94.8333 119° Southeast 480 552 31,400 1,400 Climbing Winnipeg Center
Wed 02:49:46 AM 49.3000 -94.6500 113° Southeast 470 541 32,900 1,300 Climbing Winnipeg Center
Wed 02:50:46 AM 49.2500 -94.4500 111° Southeast 470 541 34,000 900 Climbing Winnipeg Center
Wed 02:51:46 AM 49.2000 -94.2833 115° Southeast 470 541 34,700 500 Climbing Winnipeg Center
Wed 02:52:46 AM 49.1167 -94.1000 125° Southeast 480 552 35,000 150 Climbing Winnipeg Center
Wed 02:53:46 AM 49.0667 -93.9333 115° Southeast 480 552 35,000  Level Winnipeg Center
Wed 02:54:46 AM 49.0167 -93.7333 111° Southeast 470 541 35,000  Level Winnipeg Center
Wed 02:55:46 AM 48.9500 -93.5500 119° Southeast 470 541 35,000  Level Winnipeg Center
Wed 02:56:46 AM 48.9000 -93.3833 114° Southeast 470 541 35,000  Level Winnipeg Center
Wed 02:57:46 AM 48.8500 -93.2000 112° Southeast 470 541 35,000  Level Winnipeg Center
Wed 02:58:28 AM 48.8192 -93.1089 117° Southeast 470 541 35,000  Level Minneapolis Center
Wed 02:59:28 AM 48.7603 -92.9325 117° Southeast 470 541 35,000  Level Minneapolis Center
Wed 03:00:28 AM 48.7017 -92.7575 117° Southeast 469 540 35,000  Level Minneapolis Center
Wed 03:01:28 AM 48.6433 -92.5842 117° Southeast 466 536 35,000  Level Minneapolis Center
Wed 03:02:29 AM 48.5847 -92.4128 117° Southeast 463 533 35,000  Level Minneapolis Center
Wed 03:03:29 AM 48.5258 -92.2389 117° Southeast 464 534 35,000  Level Minneapolis Center
Wed 03:04:29 AM 48.4664 -92.0650 117° Southeast 466 536 35,000  Level Minneapolis Center
Wed 03:05:30 AM 48.4064 -91.8911 117° Southeast 467 537 35,000  Level Minneapolis Center
Wed 03:06:30 AM 48.3456 -91.7186 118° Southeast 466 536 35,000  Level Minneapolis Center
Wed 03:07:30 AM 48.2842 -91.5467 118° Southeast 466 536 35,000  Level Minneapolis Center
Wed 03:08:30 AM 48.2236 -91.3725 118° Southeast 469 540 35,000  Level Minneapolis Center
Wed 03:09:31 AM 48.1619 -91.2000 118° Southeast 470 541 35,000  Level Minneapolis Center
Wed 03:10:31 AM 48.1019 -91.0344 118° Southeast 468 539 35,000  Level Minneapolis Center
Wed 03:11:31 AM 48.0386 -90.8550 118° Southeast 471 542 35,000  Level Minneapolis Center
Wed 03:12:31 AM 47.9764 -90.6839 118° Southeast 470 541 35,000  Level Minneapolis Center
Wed 03:13:32 AM 47.9142 -90.5136 119° Southeast 469 540 35,000  Level Minneapolis Center
Wed 03:14:32 AM 47.8531 -90.3481 119° Southeast 471 542 35,000  Level Minneapolis Center
Wed 03:15:32 AM 47.7908 -90.1786 119° Southeast 468 539 35,000  Level Minneapolis Center
Wed 03:16:32 AM 47.7264 -90.0089 119° Southeast 469 540 35,000  Level Minneapolis Center
Wed 03:17:33 AM 47.6642 -89.8419 119° Southeast 465 535 35,000  Level Minneapolis Center
Wed 03:18:33 AM 47.6008 -89.6744 119° Southeast 464 534 35,000  Level Minneapolis Center
Wed 03:19:33 AM 47.5361 -89.5069 120° Southeast 466 536 35,000  Level Minneapolis Center
Wed 03:20:33 AM 47.4733 -89.3392 119° Southeast 466 536 35,000  Level Minneapolis Center
Wed 03:21:34 AM 47.4081 -89.1736 120° Southeast 466 536 35,000  Level Minneapolis Center
Wed 03:22:34 AM 47.3436 -89.0072 120° Southeast 466 536 35,000  Level Minneapolis Center
Wed 03:23:34 AM 47.2786 -88.8417 120° Southeast 466 536 35,000  Level Minneapolis Center
Wed 03:24:34 AM 47.2131 -88.6725 120° Southeast 472 543 35,000  Level Minneapolis Center
Wed 03:25:35 AM 47.1467 -88.5056 120° Southeast 473 544 35,000  Level Minneapolis Center
Wed 03:26:35 AM 47.0797 -88.3400 121° Southeast 471 542 35,000  Level Minneapolis Center
Wed 03:27:35 AM 47.0139 -88.1731 120° Southeast 472 543 35,000  Level Minneapolis Center
Wed 03:28:35 AM 46.9469 -88.0069 121° Southeast 473 544 35,000  Level Minneapolis Center
Wed 03:29:36 AM 46.8806 -87.8403 120° Southeast 473 544 35,000  Level Minneapolis Center
Wed 03:30:36 AM 46.8156 -87.6836 121° Southeast 473 544 35,000  Level Minneapolis Center
Wed 03:31:36 AM 46.7494 -87.5217 121° Southeast 470 541 35,000  Level Minneapolis Center
Wed 03:32:36 AM 46.6833 -87.3586 121° Southeast 468 539 35,000  Level Minneapolis Center
Wed 03:33:37 AM 46.6150 -87.1983 122° Southeast 467 537 35,000  Level Minneapolis Center
Wed 03:34:37 AM 46.5489 -87.0381 121° Southeast 464 534 35,000  Level Minneapolis Center
Wed 03:35:37 AM 46.4819 -86.8781 121° Southeast 464 534 35,000  Level Minneapolis Center
Wed 03:36:38 AM 46.4144 -86.7186 122° Southeast 465 535 35,000  Level Minneapolis Center
Wed 03:37:38 AM 46.3478 -86.5603 121° Southeast 462 532 35,000  Level Minneapolis Center
Wed 03:38:38 AM 46.2806 -86.4039 122° Southeast 459 528 35,000  Level Minneapolis Center
Wed 03:39:39 AM 46.2133 -86.2458 122° Southeast 461 531 35,000  Level Minneapolis Center
Wed 03:40:39 AM 46.1456 -86.0914 122° Southeast 455 524 35,000  Level Minneapolis Center
Wed 03:41:39 AM 46.0778 -85.9353 122° Southeast 458 527 35,000  Level Minneapolis Center
Wed 03:42:40 AM 46.0108 -85.7800 122° Southeast 457 526 35,000  Level Minneapolis Center
Wed 03:43:40 AM 45.9281 -85.5922 122° Southeast 462 532 35,000  Level Minneapolis Center
Wed 03:44:40 AM 45.8581 -85.4342 122° Southeast 467 537 35,000  Level Minneapolis Center
Wed 03:45:41 AM 45.7875 -85.2756 122° Southeast 472 543 35,000  Level Minneapolis Center
Wed 03:46:41 AM 45.7164 -85.1172 123° Southeast 473 544 35,000  Level Minneapolis Center
Wed 03:47:41 AM 45.6461 -84.9594 122° Southeast 472 543 35,000  Level Minneapolis Center
Wed 03:48:42 AM 45.5750 -84.8003 123° Southeast 474 545 35,000  Level Minneapolis Center
Wed 03:49:42 AM 45.5019 -84.6406 123° Southeast 476 548 35,000  Level Minneapolis Center
Wed 03:50:43 AM 45.4292 -84.4822 123° Southeast 477 549 35,000  Level Minneapolis Center
Wed 03:51:43 AM 45.3567 -84.3244 123° Southeast 478 550 35,000  Level Minneapolis Center
Wed 03:52:43 AM 45.2850 -84.1683 123° Southeast 473 544 35,000  Level Minneapolis Center
Wed 03:53:44 AM 45.2125 -84.0111 123° Southeast 476 548 35,000  Level Minneapolis Center
Wed 03:54:44 AM 45.1386 -83.8544 124° Southeast 477 549 35,000  Level Minneapolis Center
Wed 03:55:44 AM 45.0653 -83.6967 123° Southeast 479 551 35,000 -446 Level Minneapolis Center
Wed 03:56:45 AM 44.9894 -83.5386 124° Southeast 483 556 34,100 -893 Descending Minneapolis Center
Wed 03:57:45 AM 44.9150 -83.3789 123° Southeast 487 560 33,200 -545 Descending Minneapolis Center
Wed 03:58:46 AM 44.8406 -83.2222 124° Southeast 484 557 33,000 -99 Descending Minneapolis Center
Wed 03:59:46 AM 44.7658 -83.0675 124° Southeast 480 552 33,000  Level Minneapolis Center
Wed 04:00:46 AM 44.6925 -82.9139 124° Southeast 477 549 33,000  Level Minneapolis Center
Wed 04:01:47 AM 44.6189 -82.7614 124° Southeast 473 544 33,000  Level Minneapolis Center
Wed 04:02:47 AM 44.5439 -82.6086 125° Southeast 475 547 33,000  Level Minneapolis Center
Wed 04:03:48 AM 44.4703 -82.4586 124° Southeast 471 542 33,000  Level Minneapolis Center
Wed 04:04:48 AM 44.3967 -82.3086 124° Southeast 469 540 33,000  Level Minneapolis Center
Wed 04:05:48 AM 44.3233 -82.1578 124° Southeast 470 541 33,000  Level Minneapolis Center
Wed 04:07:01 AM 44.2000 -81.9667 132° Southeast 470 541 33,000  Level Toronto Center
Wed 04:08:01 AM 44.1333 -81.8167 122° Southeast 470 541 33,000  Level Toronto Center
Wed 04:09:01 AM 44.0667 -81.6667 122° Southeast 470 541 33,000 -650 Level Toronto Center
Wed 04:10:01 AM 43.9667 -81.5167 133° Southeast 470 541 31,700 -2,550 Descending Toronto Center
Wed 04:11:01 AM 43.9000 -81.3667 122° Southeast 480 552 27,900 -4,100 Descending Toronto Center
Wed 04:12:01 AM 43.8167 -81.2333 131° Southeast 470 541 23,500 -3,850 Descending Toronto Center
Wed 04:13:01 AM 43.7333 -81.0833 128° Southeast 460 529 20,200 -3,000 Descending Toronto Center
Wed 04:14:01 AM 43.6667 -80.9500 125° Southeast 430 495 17,500 -3,000 Descending Toronto Center
Wed 04:15:01 AM 43.6000 -80.8333 128° Southeast 410 472 14,200 -2,850 Descending Toronto Center
Wed 04:16:01 AM 43.5500 -80.7167 121° Southeast 390 449 11,800 -1,750 Descending Toronto Center
Wed 04:17:01 AM 43.4833 -80.6167 133° Southeast 340 391 10,700 -1,300 Descending Toronto Center
Wed 04:18:01 AM 43.4333 -80.5333 130° Southeast 300 345 9,200 -1,550 Descending Toronto Center
Wed 04:19:01 AM 43.3833 -80.4333 125° Southeast 290 334 7,600 -1,600 Descending Toronto Center
Wed 04:20:01 AM 43.3500 -80.3500 119° Southeast 280 322 6,000 -1,500 Descending Toronto Center
Wed 04:21:01 AM 43.3000 -80.2667 129° Southeast 270 311 4,600 -1,000 Descending Toronto Center
Wed 04:22:01 AM 43.2500 -80.1833 129° Southeast 250 288 4,000 -350 Descending Toronto Center
Wed 04:23:01 AM 43.2167 -80.1333 132° Southeast 200 230 3,900 -600 Descending Toronto Center
Wed 04:24:01 AM 43.2000 -80.0667 109° East 180 207 2,800 -900 Descending Toronto Center
Wed 04:25:01 AM 43.1833 -80.0167 115° Southeast 140 161 2,100 -700 Descending Toronto Center
Wed 04:26:01 AM 43.1833 -79.9833 90° East 140 161 1,400 -650 Descending Toronto Center
Wed 04:27:01 AM 43.1667 -79.9333 115° Southeast 140 161 800 -600 Descending Toronto Center

Login

Don't have an account? Register now (free) for customized features, flight alerts, and more!